Time;durP1;ratioP1;P1;durP2;ratioP2;P2;SDS_P1;SDS_P2;PMS_P1;PMS_P2;Temp;Humidity;BMP_temperature;BMP_pressure;BME280_temperature;BME280_humidity;BME280_pressure;Samples;Min_cycle;Max_cycle;Signal;HPM_P1;HPM_P2
2022/02/24 00:01:34;;;;;;;14.57;3.50;;;;;;;7.86;100.00;101736.34;5222009;28;20068;-73
2022/02/24 00:04:05;;;;;;;18.60;3.88;;;;;;;7.81;100.00;101728.69;5221896;28;20035;-73
2022/02/24 00:06:37;;;;;;;24.92;4.00;;;;;;;7.86;100.00;101723.81;5222254;28;20020;-73
2022/02/24 00:09:07;;;;;;;13.65;3.35;;;;;;;7.82;100.00;101714.38;5221202;28;20025;-73
2022/02/24 00:11:38;;;;;;;16.55;3.80;;;;;;;7.81;100.00;101715.34;5221686;28;20025;-73
2022/02/24 00:14:08;;;;;;;17.95;4.25;;;;;;;7.75;100.00;101711.38;5221666;28;20029;-73
2022/02/24 00:16:39;;;;;;;14.52;3.42;;;;;;;7.70;100.00;101702.03;5221895;28;20151;-73
2022/02/24 00:19:09;;;;;;;17.60;3.47;;;;;;;7.70;100.00;101694.03;5221951;28;20028;-73
2022/02/24 00:21:40;;;;;;;18.65;4.25;;;;;;;7.68;100.00;101693.28;5221223;28;20693;-74
2022/02/24 00:24:10;;;;;;;15.60;3.33;;;;;;;7.66;100.00;101688.06;5221507;28;20020;-73
2022/02/24 00:26:41;;;;;;;23.50;4.18;;;;;;;7.67;100.00;101681.75;5222149;28;20062;-73
2022/02/24 00:29:12;;;;;;;21.42;4.43;;;;;;;7.66;100.00;101676.56;5221900;28;20116;-73
2022/02/24 00:31:43;;;;;;;14.45;4.20;;;;;;;7.62;100.00;101688.44;5219167;28;20017;-74
2022/02/24 00:34:15;;;;;;;39.40;5.63;;;;;;;7.59;100.00;101691.41;5220879;28;20040;-74
2022/02/24 00:36:45;;;;;;;20.60;4.68;;;;;;;7.57;100.00;101683.50;5221402;28;20420;-73
2022/02/24 00:39:16;;;;;;;19.77;3.80;;;;;;;7.58;100.00;101681.66;5221665;28;20029;-74
2022/02/24 00:41:47;;;;;;;29.50;4.22;;;;;;;7.64;100.00;101682.03;5221039;28;20113;-73
2022/02/24 00:44:17;;;;;;;18.83;4.95;;;;;;;7.57;100.00;101679.97;5220880;28;20474;-72
2022/02/24 00:46:48;;;;;;;26.90;4.82;;;;;;;7.58;100.00;101671.88;5221339;28;20032;-73
2022/02/24 00:49:20;;;;;;;14.07;4.20;;;;;;;7.56;100.00;101659.59;5221161;28;20036;-73
2022/02/24 00:51:51;;;;;;;17.60;3.78;;;;;;;7.52;100.00;101662.50;5221222;28;20143;-74
2022/02/24 00:54:22;;;;;;;13.02;4.10;;;;;;;7.49;100.00;101661.94;5220969;28;20025;-73
2022/02/24 00:56:52;;;;;;;17.27;3.58;;;;;;;7.51;100.00;101663.50;5221270;28;20505;-74
2022/02/24 00:59:23;;;;;;;15.88;4.10;;;;;;;7.50;100.00;101653.78;5221062;28;20052;-73
2022/02/24 01:01:54;;;;;;;28.70;6.78;;;;;;;7.48;100.00;101653.06;5221225;28;20501;-73
2022/02/24 01:04:25;;;;;;;18.13;4.40;;;;;;;7.45;100.00;101649.81;5220997;28;20672;-73
2022/02/24 01:06:55;;;;;;;11.80;4.07;;;;;;;7.42;100.00;101645.56;5221307;28;20291;-73
2022/02/24 01:09:26;;;;;;;15.80;4.07;;;;;;;7.46;100.00;101639.00;5213507;28;20430;-73
2022/02/24 01:11:56;;;;;;;21.15;3.72;;;;;;;7.42;100.00;101636.69;5214823;28;20466;-73
2022/02/24 01:14:27;;;;;;;22.50;3.92;;;;;;;7.37;100.00;101634.41;5220717;28;20032;-73
2022/02/24 01:16:57;;;;;;;16.27;4.57;;;;;;;7.34;100.00;101628.50;5221401;28;20029;-73
2022/02/24 01:19:28;;;;;;;15.63;3.65;;;;;;;7.34;100.00;101623.16;5219838;28;20051;-73
2022/02/24 01:21:58;;;;;;;22.08;4.72;;;;;;;7.32;100.00;101622.41;5220283;28;20505;-73
2022/02/24 01:24:29;;;;;;;13.73;3.33;;;;;;;7.30;100.00;101622.53;5220651;28;20016;-72
2022/02/24 01:26:59;;;;;;;18.52;4.82;;;;;;;7.31;100.00;101621.56;5220502;28;20104;-72
2022/02/24 01:29:31;;;;;;;20.85;4.00;;;;;;;7.32;100.00;101609.91;5219478;28;20021;-73
2022/02/24 01:32:01;;;;;;;17.77;4.32;;;;;;;7.33;100.00;101606.28;5220737;28;20206;-72
2022/02/24 01:34:32;;;;;;;19.48;4.18;;;;;;;7.31;100.00;101597.53;5220144;28;20425;-72
2022/02/24 01:37:03;;;;;;;17.58;3.70;;;;;;;7.34;100.00;101599.97;5221086;28;20387;-73
2022/02/24 01:39:33;;;;;;;13.60;3.50;;;;;;;7.33;100.00;101608.97;5220823;28;20021;-73
2022/02/24 01:42:04;;;;;;;14.75;3.53;;;;;;;7.38;100.00;101605.88;5220616;28;20036;-72
2022/02/24 01:44:53;;;;;;;15.73;3.35;;;;;;;7.41;100.00;101595.81;5224780;28;20071;-72
2022/02/24 01:47:24;;;;;;;19.38;4.03;;;;;;;7.45;100.00;101591.91;5225005;28;20390;-72
2022/02/24 01:49:55;;;;;;;18.55;3.45;;;;;;;7.49;100.00;101588.03;5224912;28;20032;-73
2022/02/24 01:52:26;;;;;;;14.30;3.78;;;;;;;7.53;100.00;101578.78;5224705;28;20478;-72
2022/02/24 01:54:57;;;;;;;17.83;3.25;;;;;;;7.54;100.00;101574.28;5224476;28;20492;-72
2022/02/24 01:57:28;;;;;;;15.57;5.03;;;;;;;7.56;100.00;101568.81;5224077;28;20162;-72
2022/02/24 01:59:59;;;;;;;14.90;3.42;;;;;;;7.59;100.00;101565.91;5224990;28;20031;-72
2022/02/24 02:02:30;;;;;;;11.93;3.88;;;;;;;7.62;100.00;101565.63;5225436;28;20025;-73
2022/02/24 02:05:02;;;;;;;17.52;4.18;;;;;;;7.59;100.00;101560.56;5225206;28;20479;-73
2022/02/24 02:07:33;;;;;;;17.27;4.28;;;;;;;7.68;100.00;101559.75;5224962;28;20036;-72
2022/02/24 02:10:09;;;;;;;19.10;3.03;;;;;;;7.66;100.00;101554.53;5211872;28;20067;-73
2022/02/24 02:12:58;;;;;;;14.20;3.28;;;;;;;7.68;100.00;101538.38;5224969;28;20475;-73
2022/02/24 02:15:29;;;;;;;19.17;3.53;;;;;;;7.70;100.00;101536.44;5224514;28;20374;-74
2022/02/24 02:18:00;;;;;;;14.82;3.40;;;;;;;7.75;100.00;101540.41;5224875;28;20474;-73
2022/02/24 02:20:30;;;;;;;13.50;3.92;;;;;;;7.81;100.00;101528.34;5224245;28;20032;-75
2022/02/24 02:23:01;;;;;;;17.83;2.88;;;;;;;7.82;100.00;101518.50;5224364;28;20111;-74
2022/02/24 02:25:31;;;;;;;17.90;3.65;;;;;;;7.79;100.00;101520.47;5224364;28;20541;-75
2022/02/24 02:28:02;;;;;;;25.40;5.55;;;;;;;7.76;100.00;101512.72;5224127;28;20108;-75
2022/02/24 02:30:33;;;;;;;19.33;3.70;;;;;;;7.75;100.00;101512.84;5223614;28;20136;-75
2022/02/24 02:33:03;;;;;;;16.52;4.68;;;;;;;7.75;100.00;101512.84;5223559;28;20040;-73
2022/02/24 02:35:34;;;;;;;13.07;2.97;;;;;;;7.68;100.00;101507.22;5223450;28;20029;-73
2022/02/24 02:38:06;;;;;;;18.27;3.85;;;;;;;7.67;100.00;101510.84;5224026;28;20028;-73
2022/02/24 02:40:38;;;;;;;15.32;3.28;;;;;;;7.66;100.00;101510.97;5223988;28;20021;-73
2022/02/24 02:43:09;;;;;;;14.68;3.08;;;;;;;7.67;100.00;101499.31;5223932;28;20025;-71
2022/02/24 02:45:40;;;;;;;21.85;3.63;;;;;;;7.64;100.00;101486.22;5223399;28;20382;-72
2022/02/24 02:48:11;;;;;;;20.55;4.18;;;;;;;7.61;100.00;101490.00;5224094;28;20028;-72
2022/02/24 02:50:42;;;;;;;12.85;3.13;;;;;;;7.58;100.00;101492.94;5223507;28;20390;-72
2022/02/24 02:53:18;;;;;;;16.38;2.97;;;;;;;7.60;100.00;101482.97;5223327;28;20035;-72
2022/02/24 02:55:49;;;;;;;16.35;3.50;;;;;;;7.64;100.00;101476.41;5221394;28;20036;-72
2022/02/24 02:58:19;;;;;;;15.60;3.72;;;;;;;7.68;100.00;101474.28;5223398;28;20406;-72
2022/02/24 03:00:50;;;;;;;12.48;2.97;;;;;;;7.62;100.00;101464.97;5223198;28;20028;-72
2022/02/24 03:03:24;;;;;;;14.38;3.38;;;;;;;7.59;100.00;101467.09;5223236;28;20103;-72
2022/02/24 03:05:56;;;;;;;17.48;4.55;;;;;;;7.62;100.00;101464.13;5222441;28;20091;-72
2022/02/24 03:08:27;;;;;;;14.07;3.58;;;;;;;7.59;100.00;101459.09;5223059;28;20017;-72
2022/02/24 03:10:59;;;;;;;19.50;4.03;;;;;;;7.56;100.00;101454.00;5222620;28;20028;-73
2022/02/24 03:13:29;;;;;;;20.50;3.35;;;;;;;7.56;100.00;101459.34;5221348;28;20104;-72
2022/02/24 03:16:00;;;;;;;12.00;3.15;;;;;;;7.57;100.00;101451.19;5222351;28;20760;-72
2022/02/24 03:18:31;;;;;;;24.75;3.80;;;;;;;7.58;100.00;101450.22;5222403;28;20203;-73
2022/02/24 03:21:01;;;;;;;15.77;2.85;;;;;;;7.57;100.00;101450.34;5222773;28;20089;-73
2022/02/24 03:23:33;;;;;;;19.50;3.42;;;;;;;7.54;100.00;101446.13;5222442;28;20028;-73
2022/02/24 03:26:04;;;;;;;10.77;2.67;;;;;;;7.54;100.00;101440.78;5222431;28;20651;-74
2022/02/24 03:28:34;;;;;;;13.65;3.42;;;;;;;7.52;100.00;101435.56;5222901;28;20029;-73
2022/02/24 03:31:05;;;;;;;13.57;2.90;;;;;;;7.49;100.00;101430.50;5222686;28;20293;-72
2022/02/24 03:33:36;;;;;;;16.60;3.58;;;;;;;7.50;100.00;101429.50;5223072;28;20486;-72
2022/02/24 03:36:06;;;;;;;14.68;3.78;;;;;;;7.48;100.00;101430.59;5222400;28;20029;-73
2022/02/24 03:38:37;;;;;;;18.25;3.25;;;;;;;7.50;100.00;101434.84;5222606;28;20111;-72
2022/02/24 03:41:07;;;;;;;12.80;3.80;;;;;;;7.48;100.00;101428.81;5222229;28;20151;-72
2022/02/24 03:43:38;;;;;;;14.13;3.60;;;;;;;7.50;100.00;101431.34;5222221;28;20029;-73
2022/02/24 03:46:08;;;;;;;15.80;3.38;;;;;;;7.50;100.00;101426.84;5221978;28;20028;-73
2022/02/24 03:48:39;;;;;;;14.88;3.17;;;;;;;7.47;100.00;101427.09;5222517;28;20052;-73
2022/02/24 03:51:09;;;;;;;23.08;3.30;;;;;;;7.48;100.00;101402.13;5222080;28;20613;-73
2022/02/24 03:53:40;;;;;;;19.45;4.20;;;;;;;7.38;100.00;101403.00;5222083;28;20297;-73
2022/02/24 03:56:10;;;;;;;26.20;3.53;;;;;;;7.40;100.00;101398.41;5221241;28;20386;-73
2022/02/24 03:58:41;;;;;;;11.30;3.25;;;;;;;7.42;100.00;101393.75;5222027;28;20656;-73
2022/02/24 04:01:12;;;;;;;22.98;4.25;;;;;;;7.46;100.00;101395.19;5221770;28;20533;-73
2022/02/24 04:03:42;;;;;;;17.80;3.05;;;;;;;7.42;100.00;101393.75;5222025;28;20406;-73
2022/02/24 04:06:13;;;;;;;22.42;3.88;;;;;;;7.40;100.00;101385.06;5221220;28;20021;-73
2022/02/24 04:08:43;;;;;;;13.77;3.35;;;;;;;7.42;100.00;101391.09;5220959;28;20032;-73
2022/02/24 04:11:14;;;;;;;21.80;3.33;;;;;;;7.37;100.00;101390.66;5217367;28;20028;-73
2022/02/24 04:13:44;;;;;;;13.82;2.88;;;;;;;7.38;100.00;101384.31;5213989;28;20043;-72
2022/02/24 04:16:15;;;;;;;19.85;3.20;;;;;;;7.36;100.00;101383.63;5220111;28;20081;-72
2022/02/24 04:18:45;;;;;;;21.50;3.35;;;;;;;7.35;100.00;101374.78;5221313;28;20474;-73
2022/02/24 04:21:16;;;;;;;16.88;3.60;;;;;;;7.41;100.00;101382.25;5220974;28;20432;-74
2022/02/24 04:23:46;;;;;;;20.48;4.72;;;;;;;7.38;100.00;101374.53;5220943;28;20021;-73
2022/02/24 04:26:17;;;;;;;15.48;2.92;;;;;;;7.44;100.00;101370.47;5221088;28;20024;-73
2022/02/24 04:28:47;;;;;;;16.40;2.70;;;;;;;7.40;100.00;101367.22;5220864;28;20120;-72
2022/02/24 04:31:17;;;;;;;21.20;3.25;;;;;;;7.36;100.00;101365.78;5219417;28;20025;-72
2022/02/24 04:33:48;;;;;;;13.45;2.55;;;;;;;7.32;100.00;101359.00;5219809;28;20043;-72
2022/02/24 04:36:18;;;;;;;14.77;3.00;;;;;;;7.32;100.00;101355.50;5220968;28;20147;-73
2022/02/24 04:38:49;;;;;;;12.20;2.45;;;;;;;7.29;100.00;101355.78;5221060;28;20053;-73
2022/02/24 04:41:20;;;;;;;17.15;4.20;;;;;;;7.26;100.00;101354.22;5220622;28;20040;-72
2022/02/24 04:43:50;;;;;;;10.40;2.80;;;;;;;7.30;100.00;101346.78;5217324;28;20070;-72
2022/02/24 04:46:21;;;;;;;13.02;2.58;;;;;;;7.27;100.00;101345.22;5218825;28;20196;-73
2022/02/24 04:48:51;;;;;;;10.05;1.85;;;;;;;7.24;100.00;101330.34;5220783;28;20493;-73
2022/02/24 04:51:22;;;;;;;14.77;2.30;;;;;;;7.24;100.00;101332.16;5222073;28;20116;-73
2022/02/24 04:53:52;;;;;;;8.77;2.20;;;;;;;7.16;100.00;101330.13;5220975;28;20176;-72
2022/02/24 04:56:23;;;;;;;9.90;2.22;;;;;;;7.20;100.00;101328.06;5220347;28;20112;-73
2022/02/24 04:58:54;;;;;;;15.98;2.05;;;;;;;7.17;100.00;101322.97;5221220;28;20522;-73
2022/02/24 05:01:24;;;;;;;12.30;1.90;;;;;;;7.10;100.00;101324.50;5220570;28;20112;-73
2022/02/24 05:03:55;;;;;;;14.18;2.13;;;;;;;7.10;100.00;101322.66;5219340;28;20025;-73
2022/02/24 05:06:26;;;;;;;11.65;2.85;;;;;;;7.08;100.00;101321.09;5220339;28;20036;-72
2022/02/24 05:08:56;;;;;;;15.20;2.42;;;;;;;7.03;100.00;101309.97;5220083;28;20017;-74
2022/02/24 05:11:27;;;;;;;10.10;1.92;;;;;;;6.99;100.00;101314.75;5220588;28;20029;-72
2022/02/24 05:13:57;;;;;;;11.50;2.15;;;;;;;6.94;100.00;101312.47;5220214;28;20079;-73
2022/02/24 05:16:28;;;;;;;8.13;2.13;;;;;;;6.90;100.00;101313.72;5220089;28;20029;-73
2022/02/24 05:18:58;;;;;;;12.13;2.08;;;;;;;6.82;100.00;101310.00;5219555;28;20482;-73
2022/02/24 05:21:29;;;;;;;14.75;2.30;;;;;;;6.83;100.00;101304.56;5219939;28;20025;-72
2022/02/24 05:23:59;;;;;;;12.38;2.30;;;;;;;6.80;100.00;101279.97;5217298;28;20078;-73
2022/02/24 05:26:31;;;;;;;9.85;2.08;;;;;;;6.78;100.00;101285.44;5220140;28;20047;-72
2022/02/24 05:29:01;;;;;;;13.25;2.70;;;;;;;6.69;100.00;101279.06;5220091;28;20044;-73
2022/02/24 05:31:32;;;;;;;13.80;2.00;;;;;;;6.59;100.00;101283.47;5219135;28;20029;-72
2022/02/24 05:34:03;;;;;;;13.07;2.80;;;;;;;6.55;100.00;101273.19;5219604;28;20138;-72
2022/02/24 05:36:34;;;;;;;11.30;2.25;;;;;;;6.47;100.00;101271.16;5219743;28;20029;-73
2022/02/24 05:39:05;;;;;;;13.10;2.25;;;;;;;6.38;100.00;101269.31;5220509;28;20420;-73
2022/02/24 05:41:35;;;;;;;14.80;2.38;;;;;;;6.33;100.00;101266.19;5220088;28;20530;-72
2022/02/24 05:44:06;;;;;;;14.98;1.85;;;;;;;6.34;100.00;101267.88;5220615;28;20029;-73
2022/02/24 05:46:37;;;;;;;13.73;2.22;;;;;;;6.33;100.00;101267.03;5219951;28;20052;-73
2022/02/24 05:49:07;;;;;;;11.18;1.83;;;;;;;6.27;100.00;101262.19;5220419;28;20479;-73
2022/02/24 05:51:38;;;;;;;8.80;2.03;;;;;;;6.25;100.00;101252.63;5220487;28;20032;-73
2022/02/24 05:54:08;;;;;;;7.60;2.05;;;;;;;6.17;100.00;101245.28;5219629;28;20176;-74
2022/02/24 05:56:39;;;;;;;12.27;2.65;;;;;;;6.12;100.00;101245.66;5220096;28;20136;-74
2022/02/24 05:59:09;;;;;;;6.88;1.83;;;;;;;6.16;100.00;101239.09;5219483;28;20107;-74
2022/02/24 06:01:40;;;;;;;14.90;2.28;;;;;;;6.10;100.00;101241.44;5218872;28;20027;-75
2022/02/24 06:04:10;;;;;;;11.75;2.63;;;;;;;6.08;100.00;101236.25;5219531;28;20052;-75
2022/02/24 06:06:41;;;;;;;18.65;3.15;;;;;;;6.09;100.00;101237.09;5220965;28;20055;-74
2022/02/24 06:09:11;;;;;;;13.23;3.50;;;;;;;6.10;100.00;101228.97;5218806;28;20032;-74
2022/02/24 06:11:42;;;;;;;13.43;2.72;;;;;;;6.05;100.00;101223.19;5219872;28;20028;-76
2022/02/24 06:14:12;;;;;;;14.73;2.88;;;;;;;6.04;100.00;101223.31;5218297;28;20040;-75
2022/02/24 06:16:44;;;;;;;10.90;2.35;;;;;;;6.14;100.00;101225.06;5219447;28;20039;-75
2022/02/24 06:19:14;;;;;;;11.65;2.33;;;;;;;6.07;100.00;101209.72;5220388;28;20044;-74
2022/02/24 06:21:47;;;;;;;12.10;2.30;;;;;;;6.07;100.00;101202.56;5220167;28;20100;-74
2022/02/24 06:24:19;;;;;;;16.25;2.97;;;;;;;6.05;100.00;101214.34;5219791;28;20466;-75
2022/02/24 06:26:49;;;;;;;17.67;2.35;;;;;;;6.08;100.00;101206.09;5220590;28;20021;-74
2022/02/24 06:29:20;;;;;;;14.68;3.08;;;;;;;6.06;100.00;101206.22;5222582;28;20482;-74
2022/02/24 06:31:50;;;;;;;11.90;2.40;;;;;;;6.14;100.00;101202.94;5224330;28;20036;-72
2022/02/24 06:34:21;;;;;;;11.82;2.13;;;;;;;6.14;100.00;101197.59;5223488;28;20060;-71
2022/02/24 06:36:51;;;;;;;6.85;1.90;;;;;;;6.10;100.00;101198.81;5224003;28;20025;-72
2022/02/24 06:39:22;;;;;;;13.23;2.92;;;;;;;6.15;100.00;101196.63;5223236;28;20151;-74
2022/02/24 06:41:52;;;;;;;11.45;2.17;;;;;;;6.13;100.00;101179.94;5223895;28;20349;-75
2022/02/24 06:44:22;;;;;;;13.30;2.55;;;;;;;6.12;100.00;101186.22;5223356;28;20047;-74
2022/02/24 06:46:53;;;;;;;11.38;2.30;;;;;;;6.12;100.00;101191.53;5215829;28;20074;-73
2022/02/24 06:49:24;;;;;;;9.27;2.20;;;;;;;6.10;100.00;101182.84;5223398;28;20025;-74
2022/02/24 06:51:57;;;;;;;17.08;2.70;;;;;;;6.05;100.00;101185.03;5223064;28;20055;-74
2022/02/24 06:54:28;;;;;;;13.15;2.60;;;;;;;6.05;100.00;101177.06;5223229;28;20301;-75
2022/02/24 06:57:00;;;;;;;14.07;2.00;;;;;;;6.05;100.00;101174.41;5222255;28;20109;-73
2022/02/24 06:59:31;;;;;;;10.93;2.65;;;;;;;6.06;100.00;101174.25;5223407;28;20025;-72
2022/02/24 07:02:01;;;;;;;12.60;2.92;;;;;;;6.05;100.00;101172.56;5223003;28;20494;-73
2022/02/24 07:04:33;;;;;;;8.18;2.05;;;;;;;6.05;100.00;101177.91;5222870;28;20359;-72
2022/02/24 07:07:03;;;;;;;14.10;2.35;;;;;;;6.04;100.00;101165.56;5223003;28;20060;-72
2022/02/24 07:09:34;;;;;;;14.82;1.70;;;;;;;6.06;100.00;101165.41;5223033;28;20028;-73
2022/02/24 07:12:05;;;;;;;12.18;2.15;;;;;;;6.06;100.00;101168.09;5222673;28;20174;-73
2022/02/24 07:14:35;;;;;;;11.35;2.17;;;;;;;6.08;100.00;101156.34;5223186;28;20458;-73
2022/02/24 07:17:06;;;;;;;13.73;2.78;;;;;;;6.07;100.00;101162.63;5223600;28;20086;-72
2022/02/24 07:19:36;;;;;;;14.60;2.22;;;;;;;6.10;100.00;101157.03;5223208;28;20032;-72
2022/02/24 07:22:07;;;;;;;17.10;4.20;;;;;;;6.14;100.00;101147.81;5222727;28;20017;-72
2022/02/24 07:24:37;;;;;;;13.10;2.97;;;;;;;6.17;100.00;101152.88;5208186;28;20027;-72
2022/02/24 07:27:08;;;;;;;14.93;3.08;;;;;;;6.22;100.00;101147.16;5222878;28;20449;-72
2022/02/24 07:29:38;;;;;;;9.15;2.85;;;;;;;6.30;100.00;101136.69;5222674;28;20029;-72
2022/02/24 07:32:10;;;;;;;13.07;2.92;;;;;;;6.39;100.00;101132.41;5222815;28;20112;-72
2022/02/24 07:34:40;;;;;;;17.70;3.00;;;;;;;6.42;100.00;101135.63;5222665;28;20029;-72
2022/02/24 07:37:11;;;;;;;22.15;3.75;;;;;;;6.52;100.00;101134.84;5222310;28;20032;-72
2022/02/24 07:39:42;;;;;;;10.48;2.70;;;;;;;6.56;100.00;101130.94;5221113;28;20025;-72
2022/02/24 07:42:12;;;;;;;15.35;2.53;;;;;;;6.68;100.00;101144.06;5221966;28;20036;-73
2022/02/24 07:44:44;;;;;;;12.57;2.70;;;;;;;6.76;100.00;101130.03;5221219;28;20025;-71
2022/02/24 07:47:15;;;;;;;17.02;3.28;;;;;;;6.81;100.00;101122.47;5212032;28;20265;-72
2022/02/24 07:49:46;;;;;;;12.18;2.78;;;;;;;6.98;100.00;101129.00;5222773;28;20037;-72
2022/02/24 07:52:16;;;;;;;10.90;2.67;;;;;;;6.91;100.00;101120.69;5222145;28;20386;-71
2022/02/24 07:54:46;;;;;;;19.17;2.90;;;;;;;7.00;100.00;101127.88;5222220;28;20047;-72
2022/02/24 07:57:17;;;;;;;15.65;2.45;;;;;;;6.97;100.00;101120.13;5222476;28;20059;-73
2022/02/24 07:59:48;;;;;;;12.43;2.75;;;;;;;6.98;100.00;101113.00;5222357;28;20025;-72
2022/02/24 08:02:18;;;;;;;19.23;2.88;;;;;;;6.92;100.00;101109.03;5222370;28;20025;-71
2022/02/24 08:04:48;;;;;;;11.05;2.35;;;;;;;6.92;100.00;101098.38;5221968;28;20021;-72
2022/02/24 08:07:20;;;;;;;13.82;2.50;;;;;;;6.96;100.00;101098.94;5222145;28;20596;-70
2022/02/24 08:09:50;;;;;;;14.15;2.40;;;;;;;7.03;100.00;101115.22;5221929;28;20036;-72
2022/02/24 08:15:14;;;;;;;11.45;2.40;;;;;;;7.15;100.00;101115.00;5221371;28;20028;-72
2022/02/24 08:17:45;;;;;;;10.45;2.35;;;;;;;7.21;100.00;101109.09;5222009;28;20420;-72
2022/02/24 08:20:16;;;;;;;16.92;2.35;;;;;;;7.22;100.00;101104.59;5215418;28;20406;-72
2022/02/24 08:22:49;;;;;;;12.43;2.85;;;;;;;7.22;100.00;101105.44;5220962;28;20032;-72
2022/02/24 08:25:20;;;;;;;11.88;2.85;;;;;;;7.31;100.00;101100.28;5214490;28;20486;-72
2022/02/24 08:27:51;;;;;;;13.27;2.63;;;;;;;7.40;100.00;101097.63;5221792;28;20024;-72
2022/02/24 08:30:22;;;;;;;12.98;1.92;;;;;;;7.63;100.00;101102.66;5221397;28;20482;-72
2022/02/24 08:32:53;;;;;;;17.20;2.95;;;;;;;7.79;100.00;101094.94;5221671;28;20071;-72
2022/02/24 08:35:24;;;;;;;8.70;2.10;;;;;;;8.15;100.00;101090.66;5220693;28;20021;-72
2022/02/24 08:37:55;;;;;;;9.60;1.60;;;;;;;8.57;100.00;101080.41;5221544;28;20101;-73
2022/02/24 08:40:25;;;;;;;12.68;2.83;;;;;;;8.67;100.00;101085.72;5221272;28;20079;-73
2022/02/24 08:42:56;;;;;;;14.00;2.58;;;;;;;8.79;100.00;101078.34;5221770;28;20021;-73
2022/02/24 08:45:27;;;;;;;9.07;2.63;;;;;;;8.85;100.00;101076.91;5221389;28;20115;-74
2022/02/24 08:47:58;;;;;;;14.70;3.33;;;;;;;8.54;100.00;101075.38;5221070;28;20036;-72
2022/02/24 08:50:29;;;;;;;8.57;3.42;;;;;;;8.56;100.00;101076.03;5221152;28;20032;-74
2022/02/24 08:53:00;;;;;;;19.85;2.75;;;;;;;8.37;100.00;101057.41;5218673;28;20029;-73
2022/02/24 08:55:31;;;;;;;17.92;2.85;;;;;;;8.22;100.00;101072.19;5220895;28;20064;-73
2022/02/24 08:58:02;;;;;;;11.57;2.08;;;;;;;8.14;100.00;101072.09;5220955;28;20390;-72
2022/02/24 09:00:34;;;;;;;11.93;2.03;;;;;;;8.01;100.00;101062.56;5220871;28;20024;-73
2022/02/24 09:03:05;;;;;;;12.60;2.08;;;;;;;7.99;100.00;101066.38;5221013;28;20398;-73
2022/02/24 09:05:35;;;;;;;17.63;2.90;;;;;;;8.00;100.00;101060.03;5220815;28;20045;-73
2022/02/24 09:08:06;;;;;;;12.18;2.25;;;;;;;8.09;100.00;101051.16;5220997;28;20056;-72
2022/02/24 09:10:36;;;;;;;10.88;1.63;;;;;;;8.00;100.00;101046.69;5220547;28;20036;-73
2022/02/24 09:13:07;;;;;;;12.68;2.17;;;;;;;7.99;100.00;101035.16;5220861;28;20465;-73
2022/02/24 09:15:38;;;;;;;12.32;2.35;;;;;;;8.07;100.00;101034.41;5220440;28;20029;-73
2022/02/24 09:18:09;;;;;;;13.45;2.05;;;;;;;7.92;100.00;101034.03;5221012;28;20612;-73
2022/02/24 09:20:40;;;;;;;7.50;2.28;;;;;;;7.91;100.00;101035.03;5220519;28;20024;-73
2022/02/24 09:23:11;;;;;;;17.35;2.47;;;;;;;8.00;100.00;101036.00;5219643;28;20029;-73
2022/02/24 09:25:41;;;;;;;14.05;2.08;;;;;;;8.00;100.00;101023.47;5207831;28;20025;-72
2022/02/24 09:28:12;;;;;;;18.23;2.95;;;;;;;8.03;100.00;101025.88;5219812;28;20051;-73
2022/02/24 09:30:42;;;;;;;9.38;2.45;;;;;;;8.13;100.00;101014.28;5220114;28;20025;-72
2022/02/24 09:33:14;;;;;;;10.77;1.88;;;;;;;8.07;100.00;101021.06;5220732;28;20440;-72
2022/02/24 09:35:44;;;;;;;9.10;2.22;;;;;;;8.08;100.00;101011.19;5220074;28;20115;-72
2022/02/24 09:38:16;;;;;;;17.83;2.47;;;;;;;8.09;100.00;101013.75;5220551;28;20471;-72
2022/02/24 09:40:51;;;;;;;11.85;2.10;;;;;;;8.31;100.00;101009.84;5220859;28;20506;-72
2022/02/24 09:43:29;;;;;;;8.95;1.70;;;;;;;8.23;100.00;101001.72;5219542;28;20560;-73
2022/02/24 09:46:03;;;;;;;15.98;2.50;;;;;;;8.21;100.00;100996.53;5220112;28;20017;-72
2022/02/24 09:48:36;;;;;;;10.82;1.63;;;;;;;8.01;100.00;100971.72;5211226;28;20025;-73
2022/02/24 09:51:07;;;;;;;10.32;2.20;;;;;;;8.33;100.00;100967.75;5220396;28;20027;-72
2022/02/24 09:53:38;;;;;;;6.22;2.42;;;;;;;8.37;100.00;100963.00;5220539;28;20036;-72
2022/02/24 09:56:29;;;;;;;12.50;2.15;;;;;;;9.04;100.00;100957.19;5220165;28;20425;-72
2022/02/24 09:59:00;;;;;;;12.57;2.08;;;;;;;9.88;100.00;100938.88;5220631;28;20029;-72
2022/02/24 10:01:33;;;;;;;9.98;1.95;;;;;;;10.53;100.00;100928.44;5220362;28;20031;-73
2022/02/24 10:04:04;;;;;;;13.57;2.05;;;;;;;10.43;100.00;100930.41;5222079;28;20025;-72
2022/02/24 10:06:38;;;;;;;12.13;2.03;;;;;;;10.86;100.00;100918.59;5224557;28;20021;-73
2022/02/24 10:09:18;;;;;;;19.67;3.40;;;;;;;10.50;100.00;100901.97;5224665;28;20630;-72
2022/02/24 10:11:48;;;;;;;11.13;2.08;;;;;;;11.28;100.00;100896.09;5224698;28;20040;-73
2022/02/24 10:17:07;;;;;;;8.60;1.75;;;;;;;11.21;100.00;100892.44;5224056;28;20044;-73
2022/02/24 10:19:41;;;;;;;15.70;2.90;;;;;;;10.53;100.00;100874.78;5224087;28;20448;-73
2022/02/24 10:22:29;;;;;;;5.82;1.70;;;;;;;10.76;100.00;100881.19;5223671;28;20627;-73
2022/02/24 10:25:19;;;;;;;7.68;1.98;;;;;;;10.85;100.00;100898.97;5213600;28;20025;-72
2022/02/24 10:27:52;;;;;;;9.02;1.77;;;;;;;10.64;100.00;100887.88;5223161;28;20391;-72
2022/02/24 10:30:24;;;;;;;14.43;2.60;;;;;;;10.32;100.00;100872.56;5223454;28;20025;-73
2022/02/24 10:32:56;;;;;;;10.27;2.55;;;;;;;10.35;100.00;100869.56;5224041;28;20410;-75
2022/02/24 10:35:43;;;;;;;9.60;2.08;;;;;;;10.41;100.00;100865.38;5222970;28;20040;-73
2022/02/24 10:38:14;;;;;;;12.63;2.47;;;;;;;10.73;100.00;100869.94;5223255;28;20386;-72
2022/02/24 10:40:48;;;;;;;13.43;1.80;;;;;;;10.52;100.00;100863.22;5213354;28;20025;-73
2022/02/24 10:43:22;;;;;;;7.93;2.20;;;;;;;10.43;100.00;100853.47;5223142;28;20218;-73
2022/02/24 10:46:06;;;;;;;9.35;1.63;;;;;;;10.28;100.00;100852.44;5222811;28;20452;-73
2022/02/24 10:48:54;;;;;;;15.10;2.67;;;;;;;10.31;100.00;100852.13;5210632;28;20033;-73
2022/02/24 10:51:30;;;;;;;7.05;1.80;;;;;;;10.28;100.00;100852.44;5222961;28;20074;-73
2022/02/24 10:54:17;;;;;;;12.13;2.10;;;;;;;10.54;100.00;100863.91;5223110;28;20049;-74
2022/02/24 10:56:47;;;;;;;7.78;2.13;;;;;;;10.68;100.00;100851.66;5223254;28;20108;-73
2022/02/24 10:59:30;;;;;;;9.90;1.98;;;;;;;10.93;100.00;100854.34;5223323;28;20451;-73
2022/02/24 11:02:02;;;;;;;9.40;1.73;;;;;;;11.02;100.00;100840.75;5210074;28;20059;-72
2022/02/24 11:04:34;;;;;;;9.20;1.83;;;;;;;10.82;100.00;100852.84;5214630;28;20096;-73
2022/02/24 11:07:04;;;;;;;10.95;2.53;;;;;;;10.97;100.00;100835.06;5221046;28;20482;-72
2022/02/24 11:09:37;;;;;;;5.78;1.70;;;;;;;11.31;100.00;100832.16;5220360;28;20032;-73
2022/02/24 11:12:10;;;;;;;5.82;1.60;;;;;;;11.20;100.00;100824.47;5221024;28;20029;-73
2022/02/24 11:14:41;;;;;;;5.68;1.55;;;;;;;11.00;100.00;100828.53;5218655;28;20025;-73
2022/02/24 11:17:14;;;;;;;8.20;2.03;;;;;;;11.34;100.00;100825.59;5220175;28;20032;-74
2022/02/24 11:19:44;;;;;;;8.73;1.80;;;;;;;11.01;100.00;100820.28;5220314;28;20029;-73
2022/02/24 11:22:16;;;;;;;9.00;1.73;;;;;;;11.22;100.00;100810.88;5220217;28;20044;-73
2022/02/24 11:24:47;;;;;;;11.30;2.25;;;;;;;11.47;100.00;100812.47;5213154;28;20163;-73
2022/02/24 11:27:24;;;;;;;10.25;1.75;;;;;;;11.65;100.00;100786.22;5220348;28;20488;-73
2022/02/24 11:30:02;;;;;;;4.90;1.45;;;;;;;11.53;100.00;100776.84;5220654;28;20017;-73
2022/02/24 11:32:34;;;;;;;7.40;1.52;;;;;;;10.87;100.00;100770.81;5218601;28;20104;-73
2022/02/24 11:35:07;;;;;;;7.50;1.20;;;;;;;11.09;100.00;100766.59;5218557;28;20150;-73
2022/02/24 11:37:51;;;;;;;8.48;1.95;;;;;;;11.42;100.00;100750.38;5219364;28;20044;-73
2022/02/24 11:40:25;;;;;;;6.50;1.30;;;;;;;11.71;100.00;100739.00;5220371;28;20032;-74
2022/02/24 11:43:14;;;;;;;7.10;1.40;;;;;;;11.66;100.00;100723.38;5219000;28;20029;-73